Energy Center, Louisiana
Current Conditions -  °F | °C
As of 5:53 PM on Thursday 27 Nov 2014 (Local Time) from KLFT Reporting Station
Clear Clear  
Wind Chill: 10°   Ceiling: Unl
Heat Index: 10°   Visibility: 10mi
Dew Point:   Wind: 5mph
Humidity: 50%   Direction: 360°N
Pressure: 30.44"   Gusts: NA
Location:  30.2247°N, 92.0198°W
Report Text: KLFT 272353Z 36004KT 10SM CLR 10/00 A3044 RMK AO2 SLP307 T01000000 10167 20100 53010
Loading
Personal Weather Stations






























Interactive Weather Map New forecast layout! Learn more

10-Day Weather Forecast

Advertisements
Track Severe Weather on mobile